Time;durP1;ratioP1;P1;durP2;ratioP2;P2;SDS_P1;SDS_P2;PMS_P1;PMS_P2;Temp;Humidity;BMP_temperature;BMP_pressure;BME280_temperature;BME280_humidity;BME280_pressure;Samples;Min_cycle;Max_cycle;Signal;HPM_P1;HPM_P2
2021/01/20 00:01:50;;;;;;;23.67;10.63;;;;;;;-7.98;58.13;99784.97;5070716;28;20035;-70
2021/01/20 00:04:16;;;;;;;19.70;9.20;;;;;;;-7.91;58.06;99806.59;5070070;28;20029;-72
2021/01/20 00:06:41;;;;;;;19.60;9.63;;;;;;;-7.91;57.64;99791.00;5069986;28;20105;-72
2021/01/20 00:09:06;;;;;;;21.73;10.02;;;;;;;-7.85;58.17;99805.69;5069945;28;20506;-73
2021/01/20 00:11:32;;;;;;;21.80;10.23;;;;;;;-7.86;57.84;99806.56;5073362;28;20045;-69
2021/01/20 00:13:58;;;;;;;21.67;9.68;;;;;;;-7.80;57.93;99810.00;5074082;28;20035;-71
2021/01/20 00:16:23;;;;;;;21.75;9.40;;;;;;;-7.86;58.29;99788.38;5072231;28;20411;-70
2021/01/20 00:18:49;;;;;;;20.73;9.65;;;;;;;-7.79;57.86;99797.84;5073341;28;20485;-72
2021/01/20 00:21:14;;;;;;;22.92;9.82;;;;;;;-7.89;58.21;99783.22;5074178;28;20040;-71
2021/01/20 00:23:40;;;;;;;22.77;10.65;;;;;;;-7.86;57.90;99788.38;5072208;28;20033;-69
2021/01/20 00:26:05;;;;;;;22.05;9.75;;;;;;;-7.80;58.06;99799.63;5072940;28;20475;-65
2021/01/20 00:28:31;;;;;;;20.08;9.30;;;;;;;-7.76;58.30;99791.78;5071782;28;20071;-70
2021/01/20 00:30:56;;;;;;;21.70;9.60;;;;;;;-7.91;58.35;99785.81;5072819;28;20040;-71
2021/01/20 00:33:25;;;;;;;19.83;8.73;;;;;;;-7.75;58.01;99807.38;5072637;28;20051;-70
2021/01/20 00:35:51;;;;;;;23.40;10.10;;;;;;;-7.79;58.11;99801.34;5073293;28;20028;-71
2021/01/20 00:38:17;;;;;;;19.67;9.48;;;;;;;-7.94;58.02;99776.31;5072928;28;20407;-70
2021/01/20 00:40:43;;;;;;;20.52;9.65;;;;;;;-7.81;58.48;99797.00;5072987;28;20036;-70
2021/01/20 00:43:08;;;;;;;24.80;10.40;;;;;;;-7.96;58.04;99772.84;5072882;28;20024;-70
2021/01/20 00:45:34;;;;;;;19.98;9.18;;;;;;;-7.83;58.38;99809.16;5072937;28;20158;-70
2021/01/20 00:47:59;;;;;;;19.45;9.15;;;;;;;-7.83;58.60;99807.44;5073558;28;20040;-71
2021/01/20 00:50:25;;;;;;;20.65;9.32;;;;;;;-7.82;58.53;99816.06;5072924;28;20059;-67
2021/01/20 00:52:50;;;;;;;20.70;8.93;;;;;;;-7.82;58.45;99814.34;5073559;28;20037;-70
2021/01/20 00:55:16;;;;;;;21.17;8.65;;;;;;;-7.82;58.49;99824.75;5073032;28;20036;-68
2021/01/20 00:57:43;;;;;;;18.95;8.32;;;;;;;-7.86;58.62;99809.19;5072700;28;20480;-71
2021/01/20 01:00:10;;;;;;;18.35;8.52;;;;;;;-7.81;58.45;99812.59;5072605;28;20049;-72
2021/01/20 01:02:36;;;;;;;18.10;8.18;;;;;;;-7.81;58.45;99812.59;5071605;28;20032;-70
2021/01/20 01:05:06;;;;;;;19.85;9.20;;;;;;;-7.84;58.38;99808.28;5072380;28;20039;-69
2021/01/20 01:07:31;;;;;;;22.67;9.13;;;;;;;-7.96;58.53;99804.03;5075376;28;20147;-67
2021/01/20 01:09:57;;;;;;;19.23;8.65;;;;;;;-7.81;58.74;99810.88;5073705;28;20112;-67
2021/01/20 01:12:22;;;;;;;20.45;9.40;;;;;;;-7.98;58.69;99790.16;5072731;28;20056;-70
2021/01/20 01:14:48;;;;;;;17.63;8.98;;;;;;;-7.89;58.99;99788.41;5072384;28;20051;-60
2021/01/20 01:17:13;;;;;;;17.92;7.95;;;;;;;-7.78;58.63;99823.84;5072962;28;20039;-69
2021/01/20 01:19:38;;;;;;;16.20;7.53;;;;;;;-7.76;58.31;99805.63;5073112;28;20472;-69
2021/01/20 01:22:04;;;;;;;18.77;8.32;;;;;;;-7.81;58.94;99804.81;5072050;28;20450;-69
2021/01/20 01:24:29;;;;;;;18.65;7.78;;;;;;;-7.74;58.69;99803.88;5072137;28;20511;-64
2021/01/20 01:26:55;;;;;;;16.52;7.85;;;;;;;-8.10;58.87;99757.31;5073158;28;20053;-70
2021/01/20 01:29:20;;;;;;;15.93;7.70;;;;;;;-7.76;58.81;99800.44;5072558;28;20120;-70
2021/01/20 01:31:46;;;;;;;20.05;8.45;;;;;;;-7.77;58.82;99824.72;5072147;28;20024;-67
2021/01/20 01:34:11;;;;;;;19.77;8.10;;;;;;;-8.39;58.42;99708.13;5071999;28;20043;-68
2021/01/20 01:36:37;;;;;;;16.00;7.15;;;;;;;-8.12;58.64;99766.84;5072780;28;20555;-68
2021/01/20 01:39:04;;;;;;;21.55;8.65;;;;;;;-7.85;58.96;99811.75;5072324;28;20050;-68
2021/01/20 01:41:29;;;;;;;20.25;8.35;;;;;;;-8.52;59.17;99725.53;5071876;28;20039;-70
2021/01/20 01:43:55;;;;;;;16.60;8.05;;;;;;;-7.99;58.74;99798.84;5071878;28;20033;-70
2021/01/20 01:46:20;;;;;;;17.38;8.20;;;;;;;-7.98;59.17;99818.75;5072530;28;20032;-68
2021/01/20 01:48:46;;;;;;;16.77;7.38;;;;;;;-8.52;59.11;99749.75;5071935;28;20522;-66
2021/01/20 01:51:11;;;;;;;17.80;7.88;;;;;;;-8.22;59.21;99812.78;5071686;28;20488;-69
2021/01/20 01:53:37;;;;;;;18.20;7.82;;;;;;;-8.31;59.46;99824.97;5071531;28;20044;-71
2021/01/20 01:56:02;;;;;;;17.98;7.60;;;;;;;-8.31;59.58;99827.56;5072075;28;20050;-68
2021/01/20 01:58:28;;;;;;;20.88;8.20;;;;;;;-8.84;59.59;99753.31;5071951;28;20400;-58
2021/01/20 02:00:55;;;;;;;15.68;7.82;;;;;;;-8.59;60.15;99789.59;5071542;28;20040;-68
2021/01/20 02:03:21;;;;;;;15.43;7.35;;;;;;;-8.24;59.94;99824.91;5071652;28;20094;-70
2021/01/20 02:05:47;;;;;;;18.75;7.85;;;;;;;-8.25;60.26;99815.41;5071701;28;20120;-68
2021/01/20 02:08:13;;;;;;;20.90;8.70;;;;;;;-8.07;60.12;99821.41;5071134;28;20123;-63
2021/01/20 02:10:39;;;;;;;17.98;8.00;;;;;;;-7.98;59.95;99829.13;5070283;28;20031;-69
2021/01/20 02:13:14;;;;;;;20.05;8.05;;;;;;;-7.89;60.36;99828.22;5071184;28;20035;-69
2021/01/20 02:16:05;;;;;;;18.58;8.63;;;;;;;-7.83;60.09;99816.94;5071451;28;20494;-68
2021/01/20 02:18:32;;;;;;;24.40;8.25;;;;;;;-7.84;59.39;99797.88;5071022;28;20127;-69
2021/01/20 02:21:43;;;;;;;22.38;8.93;;;;;;;-7.61;59.59;99804.69;5070793;28;20030;-69
2021/01/20 02:24:11;;;;;;;23.45;9.02;;;;;;;-8.07;59.00;99748.66;5070982;28;20560;-67
2021/01/20 02:27:08;;;;;;;21.08;9.40;;;;;;;-7.51;59.38;99811.56;5070417;28;20159;-68
2021/01/20 02:29:52;;;;;;;18.83;8.07;;;;;;;-7.43;58.89;99803.72;5070362;28;20110;-72
2021/01/20 02:32:18;;;;;;;16.83;7.80;;;;;;;-7.46;58.75;99806.34;5070419;28;20039;-70
2021/01/20 02:34:46;;;;;;;19.67;7.85;;;;;;;-7.42;58.91;99801.94;5070927;28;20032;-66
2021/01/20 02:37:15;;;;;;;19.30;8.50;;;;;;;-7.40;58.32;99816.69;5070853;28;20078;-68
2021/01/20 02:39:40;;;;;;;16.10;8.10;;;;;;;-7.38;58.83;99817.53;5070723;28;20040;-70
2021/01/20 02:42:06;;;;;;;18.52;7.82;;;;;;;-7.37;58.57;99831.38;5070903;28;20036;-68
2021/01/20 02:44:39;;;;;;;18.55;8.15;;;;;;;-7.39;58.56;99805.41;5070464;28;20503;-68
2021/01/20 02:47:07;;;;;;;18.13;8.18;;;;;;;-7.31;58.13;99822.69;5070309;28;20237;-68
2021/01/20 02:49:34;;;;;;;16.08;7.82;;;;;;;-7.29;58.18;99815.72;5070601;28;20041;-67
2021/01/20 02:52:15;;;;;;;19.25;8.20;;;;;;;-7.26;58.67;99824.38;5070677;28;20196;-67
2021/01/20 02:54:41;;;;;;;18.30;8.05;;;;;;;-7.47;58.39;99817.63;5070215;28;20040;-70
2021/01/20 02:57:08;;;;;;;17.08;8.05;;;;;;;-7.86;58.09;99745.03;5071311;28;20024;-68
2021/01/20 02:59:35;;;;;;;17.00;8.60;;;;;;;-7.41;58.07;99827.09;5069782;28;20036;-66
2021/01/20 03:02:09;;;;;;;19.02;8.55;;;;;;;-7.47;58.26;99812.41;5070309;28;20035;-67
2021/01/20 03:04:37;;;;;;;16.02;7.35;;;;;;;-7.43;58.73;99821.03;5070267;28;20392;-64
2021/01/20 03:07:03;;;;;;;15.35;7.57;;;;;;;-7.38;58.60;99832.25;5070165;28;20041;-65
2021/01/20 03:09:29;;;;;;;17.33;7.97;;;;;;;-7.30;58.31;99820.09;5070091;28;20488;-70
2021/01/20 03:11:54;;;;;;;18.85;7.85;;;;;;;-7.36;58.05;99802.78;5070559;28;20047;-68
2021/01/20 03:14:25;;;;;;;19.63;8.10;;;;;;;-7.25;58.53;99804.41;5070963;28;20040;-71
2021/01/20 03:16:51;;;;;;;15.48;7.35;;;;;;;-7.19;57.76;99803.50;5068841;28;20387;-73
2021/01/20 03:19:17;;;;;;;18.98;8.35;;;;;;;-7.56;57.85;99739.66;5070167;28;20028;-69
2021/01/20 03:21:42;;;;;;;17.80;8.38;;;;;;;-7.15;58.33;99819.09;5070676;28;20032;-73
2021/01/20 03:24:08;;;;;;;16.60;7.95;;;;;;;-7.07;58.29;99808.63;5070641;28;20495;-71
2021/01/20 03:26:34;;;;;;;15.93;7.63;;;;;;;-6.98;57.93;99836.31;5069840;28;20392;-63
2021/01/20 03:28:59;;;;;;;16.10;7.25;;;;;;;-6.94;57.46;99823.25;5070579;28;20054;-72
2021/01/20 03:31:25;;;;;;;16.58;7.40;;;;;;;-6.92;57.64;99810.22;5070287;28;20059;-69
2021/01/20 03:33:51;;;;;;;14.07;6.57;;;;;;;-6.89;57.67;99815.41;5070679;28;20052;-68
2021/01/20 03:36:16;;;;;;;18.00;6.55;;;;;;;-7.30;57.35;99734.25;5070140;28;20036;-70
2021/01/20 03:38:42;;;;;;;16.58;7.18;;;;;;;-6.76;57.49;99813.53;5069937;28;20572;-70
2021/01/20 03:41:08;;;;;;;16.15;6.57;;;;;;;-6.70;57.40;99815.22;5070527;28;20097;-67
2021/01/20 03:43:33;;;;;;;15.93;6.70;;;;;;;-6.74;57.16;99811.78;5070609;28;20119;-69
2021/01/20 03:45:59;;;;;;;14.98;6.50;;;;;;;-6.66;57.43;99817.75;5074115;28;20126;-69
2021/01/20 03:48:24;;;;;;;14.95;6.90;;;;;;;-6.70;56.73;99810.03;5073700;28;20396;-66
2021/01/20 03:50:50;;;;;;;15.73;6.57;;;;;;;-6.68;57.29;99823.88;5073854;28;20549;-69
2021/01/20 03:53:15;;;;;;;13.07;6.78;;;;;;;-6.67;57.42;99825.59;5074296;28;20033;-69
2021/01/20 03:55:41;;;;;;;13.63;6.78;;;;;;;-7.14;57.43;99747.97;5073535;28;20029;-67
2021/01/20 03:58:06;;;;;;;14.98;6.43;;;;;;;-6.65;57.44;99827.31;5073631;28;20036;-67
2021/01/20 04:00:32;;;;;;;18.75;6.72;;;;;;;-6.74;57.42;99813.53;5074194;28;20527;-72
2021/01/20 04:02:57;;;;;;;16.48;6.95;;;;;;;-7.07;57.60;99767.84;5074070;28;20044;-71
2021/01/20 04:05:23;;;;;;;15.48;6.75;;;;;;;-6.71;57.75;99853.41;5072281;28;20119;-69
2021/01/20 04:07:49;;;;;;;13.45;6.95;;;;;;;-6.72;58.13;99835.22;5073330;28;20041;-69
2021/01/20 04:10:14;;;;;;;14.73;6.72;;;;;;;-6.91;57.86;99796.34;5071994;28;20029;-67
2021/01/20 04:12:40;;;;;;;15.70;7.25;;;;;;;-6.95;58.22;99800.69;5074042;28;20525;-68
2021/01/20 04:15:07;;;;;;;17.55;7.00;;;;;;;-6.78;58.08;99834.38;5073432;28;20583;-67
2021/01/20 04:17:34;;;;;;;16.08;7.13;;;;;;;-6.80;58.36;99843.94;5073261;28;20040;-72
2021/01/20 04:19:59;;;;;;;12.93;6.00;;;;;;;-6.81;58.47;99828.34;5072979;28;20028;-68
2021/01/20 04:22:26;;;;;;;13.75;6.47;;;;;;;-6.82;58.50;99830.06;5073116;28;20048;-68
2021/01/20 04:24:51;;;;;;;14.15;6.53;;;;;;;-6.82;58.46;99842.25;5073203;28;20427;-68
2021/01/20 04:27:17;;;;;;;14.13;6.50;;;;;;;-6.83;58.45;99830.97;5072966;28;20114;-68
2021/01/20 04:29:43;;;;;;;12.07;6.22;;;;;;;-6.85;58.50;99843.13;5073311;28;20041;-69
2021/01/20 04:32:09;;;;;;;12.30;5.40;;;;;;;-6.82;58.79;99844.84;5071647;28;20525;-67
2021/01/20 04:34:34;;;;;;;13.27;5.75;;;;;;;-6.82;58.40;99853.50;5073522;28;20511;-70
2021/01/20 04:37:00;;;;;;;13.07;5.88;;;;;;;-6.81;58.88;99839.63;5072403;28;20032;-69
2021/01/20 04:39:25;;;;;;;13.65;6.45;;;;;;;-6.88;58.52;99827.53;5073023;28;20103;-71
2021/01/20 04:41:51;;;;;;;14.48;6.80;;;;;;;-6.82;58.90;99848.31;5072789;28;20040;-71
2021/01/20 04:44:17;;;;;;;13.30;6.88;;;;;;;-6.82;59.20;99845.69;5072157;28;20025;-74
2021/01/20 04:46:44;;;;;;;13.18;6.63;;;;;;;-6.84;58.97;99844.84;5072857;28;20044;-74
2021/01/20 04:49:14;;;;;;;15.32;8.10;;;;;;;-6.80;59.27;99845.69;5072755;28;20496;-72
2021/01/20 04:51:41;;;;;;;15.25;7.10;;;;;;;-6.78;58.72;99850.00;5072959;28;20124;-70
2021/01/20 04:54:12;;;;;;;16.30;7.22;;;;;;;-6.78;58.92;99842.19;5073236;28;20036;-72
2021/01/20 04:56:40;;;;;;;13.63;6.53;;;;;;;-6.74;59.18;99858.66;5071531;28;20136;-70
2021/01/20 04:59:06;;;;;;;15.57;6.95;;;;;;;-6.78;58.71;99839.56;5073031;28;20539;-72
2021/01/20 05:01:32;;;;;;;16.75;7.80;;;;;;;-6.70;58.71;99854.28;5072565;28;20071;-69
2021/01/20 05:04:03;;;;;;;14.90;7.13;;;;;;;-6.68;58.80;99849.94;5072523;28;20567;-73
2021/01/20 05:06:30;;;;;;;12.40;5.82;;;;;;;-6.64;59.02;99855.06;5072423;28;20036;-70
2021/01/20 05:08:57;;;;;;;15.93;6.32;;;;;;;-6.66;58.73;99855.97;5072984;28;20048;-72
2021/01/20 05:11:54;;;;;;;14.50;6.80;;;;;;;-6.57;59.09;99852.44;5076532;28;20051;-70
2021/01/20 05:14:20;;;;;;;14.35;5.85;;;;;;;-6.78;59.20;99834.38;5077073;28;20506;-74
2021/01/20 05:16:50;;;;;;;12.88;6.03;;;;;;;-6.61;59.13;99864.59;5072658;28;20036;-71
2021/01/20 05:19:16;;;;;;;13.43;6.50;;;;;;;-6.63;59.01;99861.16;5072815;28;20036;-70
2021/01/20 05:22:04;;;;;;;13.35;6.03;;;;;;;-6.57;59.03;99852.44;5071908;28;20067;-74
2021/01/20 05:24:31;;;;;;;13.05;6.10;;;;;;;-6.55;58.88;99866.28;5071960;28;20029;-70
2021/01/20 05:26:56;;;;;;;16.88;6.60;;;;;;;-6.54;58.91;99868.03;5072536;28;20517;-71
2021/01/20 05:29:22;;;;;;;13.70;6.63;;;;;;;-6.55;58.81;99866.28;5072186;28;20128;-69
2021/01/20 05:31:47;;;;;;;14.45;6.70;;;;;;;-6.63;59.05;99854.22;5071663;28;20068;-69
2021/01/20 05:34:23;;;;;;;15.45;6.95;;;;;;;-6.95;58.94;99787.69;5072001;28;20126;-61
2021/01/20 05:37:03;;;;;;;14.35;6.55;;;;;;;-6.47;59.04;99874.03;5072377;28;20041;-68
2021/01/20 05:39:30;;;;;;;17.98;7.13;;;;;;;-6.49;59.23;99872.31;5072115;28;20559;-69
2021/01/20 05:42:05;;;;;;;13.90;7.28;;;;;;;-6.46;58.83;99876.63;5071492;28;20502;-71
2021/01/20 05:44:30;;;;;;;13.48;6.53;;;;;;;-6.41;58.68;99869.59;5071570;28;20032;-71
2021/01/20 05:46:56;;;;;;;13.63;6.25;;;;;;;-6.40;58.71;99873.09;5071805;28;20508;-70
2021/01/20 05:49:23;;;;;;;17.55;6.80;;;;;;;-6.39;58.77;99870.47;5071721;28;20452;-70
2021/01/20 05:51:49;;;;;;;14.30;6.22;;;;;;;-6.38;58.80;99868.72;5071365;28;20081;-69
2021/01/20 05:54:28;;;;;;;13.75;6.97;;;;;;;-6.32;58.72;99884.28;5070250;28;20124;-68
2021/01/20 05:56:54;;;;;;;13.48;6.55;;;;;;;-6.35;59.00;99868.69;5072099;28;20043;-70
2021/01/20 05:59:25;;;;;;;13.82;6.53;;;;;;;-6.35;58.88;99873.91;5071961;28;20032;-69
2021/01/20 06:01:51;;;;;;;14.98;6.18;;;;;;;-6.34;58.74;99880.84;5071047;28;20068;-68
2021/01/20 06:04:19;;;;;;;13.10;5.82;;;;;;;-6.37;58.64;99873.06;5071190;28;20055;-71
2021/01/20 06:06:47;;;;;;;11.30;5.80;;;;;;;-6.34;58.36;99875.63;5071753;28;20028;-69
2021/01/20 06:09:13;;;;;;;15.20;6.18;;;;;;;-6.44;59.07;99854.00;5070461;28;20086;-55
2021/01/20 06:11:38;;;;;;;13.38;5.88;;;;;;;-6.29;58.82;99878.19;5071327;28;20032;-69
2021/01/20 06:14:04;;;;;;;11.07;5.85;;;;;;;-6.27;58.49;99872.09;5071104;28;20077;-71
2021/01/20 06:16:29;;;;;;;17.08;6.82;;;;;;;-6.27;58.69;99869.50;5070663;28;20032;-72
2021/01/20 06:19:02;;;;;;;14.00;6.55;;;;;;;-6.23;58.99;99884.22;5071051;28;20051;-65
2021/01/20 06:21:30;;;;;;;11.07;6.00;;;;;;;-6.26;58.61;99872.94;5070630;28;20028;-66
2021/01/20 06:24:17;;;;;;;17.00;6.97;;;;;;;-6.11;58.29;99890.16;5070764;28;20071;-68
2021/01/20 06:26:58;;;;;;;16.65;6.47;;;;;;;-6.23;58.29;99873.78;5071245;28;20052;-63
2021/01/20 06:29:28;;;;;;;10.48;5.60;;;;;;;-6.03;58.12;99890.06;5070224;28;20071;-63
2021/01/20 06:31:56;;;;;;;14.63;6.32;;;;;;;-6.01;58.12;99883.97;5070851;28;20408;-63
2021/01/20 06:34:22;;;;;;;13.65;6.43;;;;;;;-6.04;57.87;99878.75;5070792;28;20606;-71
2021/01/20 06:36:47;;;;;;;10.98;6.07;;;;;;;-6.02;58.04;99891.78;5070569;28;20115;-64
2021/01/20 06:39:28;;;;;;;12.82;6.50;;;;;;;-5.86;57.67;99902.88;5071212;28;20040;-71
2021/01/20 06:41:58;;;;;;;11.85;5.47;;;;;;;-5.89;57.93;99914.22;5070565;28;20032;-73
2021/01/20 06:44:24;;;;;;;15.23;6.88;;;;;;;-5.81;57.97;99907.16;5070529;28;20602;-71
2021/01/20 06:46:55;;;;;;;17.33;6.57;;;;;;;-5.75;57.77;99898.41;5070974;28;20107;-71
2021/01/20 06:49:25;;;;;;;15.02;6.72;;;;;;;-5.71;57.81;99902.69;5069427;28;20423;-68
2021/01/20 06:52:12;;;;;;;12.75;5.68;;;;;;;-5.58;57.41;99903.41;5070426;28;20488;-70
2021/01/20 06:54:42;;;;;;;11.35;5.68;;;;;;;-5.54;57.36;99919.88;5070794;28;20083;-71
2021/01/20 06:57:25;;;;;;;12.43;5.93;;;;;;;-5.42;57.23;99905.81;5070777;28;20448;-71
2021/01/20 07:00:15;;;;;;;12.52;5.75;;;;;;;-5.36;57.13;99911.78;5070169;28;20425;-71
2021/01/20 07:02:59;;;;;;;10.77;5.63;;;;;;;-5.25;56.79;99921.22;5067673;28;20043;-72
2021/01/20 07:05:35;;;;;;;13.02;5.95;;;;;;;-5.28;56.29;99879.50;5061087;28;20051;-68
2021/01/20 07:08:01;;;;;;;14.65;6.30;;;;;;;-5.03;55.80;99913.94;5060663;28;20037;-70
2021/01/20 07:10:30;;;;;;;14.02;6.15;;;;;;;-4.97;55.75;99910.38;5049862;28;20494;-68
2021/01/20 07:13:10;;;;;;;13.68;6.18;;;;;;;-4.87;55.37;99911.94;5050762;28;20543;-72
2021/01/20 07:15:40;;;;;;;13.65;6.50;;;;;;;-4.82;55.33;99912.75;5058259;28;20118;-71
2021/01/20 07:18:07;;;;;;;12.18;5.60;;;;;;;-4.80;55.46;99908.38;5055354;28;20485;-70
2021/01/20 07:20:33;;;;;;;16.02;6.45;;;;;;;-4.72;55.17;99899.53;5049799;28;20040;-72
2021/01/20 07:23:00;;;;;;;12.82;5.85;;;;;;;-4.59;54.56;99923.69;5050862;28;20036;-74
2021/01/20 07:25:29;;;;;;;12.20;6.40;;;;;;;-4.56;54.62;99911.47;5050143;28;20128;-74
2021/01/20 07:27:54;;;;;;;13.75;6.22;;;;;;;-4.43;54.25;99919.94;5049515;28;20091;-71
2021/01/20 07:30:21;;;;;;;14.43;6.13;;;;;;;-4.37;54.60;99918.94;5049061;28;20489;-73
2021/01/20 07:32:47;;;;;;;14.50;6.15;;;;;;;-4.33;54.04;99923.25;5049192;28;20047;-51
2021/01/20 07:35:25;;;;;;;11.65;6.05;;;;;;;-4.26;54.20;99914.41;5050449;28;20513;-71
2021/01/20 07:38:05;;;;;;;15.20;6.18;;;;;;;-4.27;53.75;99901.34;5049742;28;20036;-72
2021/01/20 07:40:36;;;;;;;12.18;5.97;;;;;;;-4.16;54.04;99909.00;5049938;28;20085;-74
2021/01/20 07:43:03;;;;;;;17.33;6.45;;;;;;;-4.09;53.86;99918.47;5051090;28;20540;-71
2021/01/20 07:45:41;;;;;;;13.23;5.55;;;;;;;-4.32;53.43;99870.94;5060344;28;20032;-70
2021/01/20 07:48:08;;;;;;;11.23;6.00;;;;;;;-3.92;53.50;99923.38;5065297;28;20079;-74
2021/01/20 07:50:40;;;;;;;16.52;6.80;;;;;;;-3.82;53.10;99924.91;5069646;28;20202;-70
2021/01/20 07:53:09;;;;;;;15.82;6.43;;;;;;;-3.82;53.57;99909.22;5069238;28;20040;-73
2021/01/20 07:55:34;;;;;;;11.43;6.10;;;;;;;-4.15;53.31;99858.44;5068252;28;20036;-74
2021/01/20 07:58:00;;;;;;;12.88;5.15;;;;;;;-3.66;53.30;99930.69;5069674;28;20412;-72
2021/01/20 08:00:26;;;;;;;12.52;5.65;;;;;;;-3.66;53.38;99915.00;5069875;28;20068;-73
2021/01/20 08:02:51;;;;;;;13.00;6.07;;;;;;;-3.57;52.75;99934.88;5070414;28;20040;-72
2021/01/20 08:05:17;;;;;;;13.30;6.22;;;;;;;-3.50;52.60;99930.38;5069531;28;20399;-72
2021/01/20 08:07:43;;;;;;;13.27;5.80;;;;;;;-3.92;52.52;99856.22;5069655;28;20032;-71
2021/01/20 08:10:21;;;;;;;10.90;5.32;;;;;;;-3.55;52.24;99924.38;5069394;28;20060;-74
2021/01/20 08:12:50;;;;;;;13.85;5.95;;;;;;;-3.55;52.67;99917.38;5069918;28;20116;-63
2021/01/20 08:15:16;;;;;;;11.93;5.43;;;;;;;-3.40;52.50;99929.28;5069028;28;20525;-68
2021/01/20 08:17:43;;;;;;;12.25;5.80;;;;;;;-3.79;52.59;99854.19;5067231;28;20056;-68
2021/01/20 08:20:11;;;;;;;13.32;5.78;;;;;;;-3.25;52.26;99938.59;5067218;28;20525;-59
2021/01/20 08:22:45;;;;;;;10.85;5.40;;;;;;;-3.21;52.22;99928.88;5067081;28;20119;-65
2021/01/20 08:25:17;;;;;;;13.30;5.47;;;;;;;-3.29;52.42;99896.78;5066731;28;20487;-70
2021/01/20 08:27:44;;;;;;;14.38;5.68;;;;;;;-3.13;51.78;99929.59;5059941;28;20488;-72
2021/01/20 08:30:13;;;;;;;10.85;5.15;;;;;;;-3.26;52.11;99921.13;5064663;28;20068;-71
2021/01/20 08:32:55;;;;;;;12.20;5.55;;;;;;;-3.49;51.82;99877.13;5068595;28;20037;-69
2021/01/20 08:35:39;;;;;;;13.73;5.47;;;;;;;-2.98;51.72;99935.38;5071032;28;20058;-59
2021/01/20 08:38:05;;;;;;;11.23;5.40;;;;;;;-2.89;51.39;99949.13;5071246;28;20515;-73
2021/01/20 08:40:32;;;;;;;10.07;5.22;;;;;;;-2.77;51.65;99952.38;5072072;28;20456;-73
2021/01/20 08:42:58;;;;;;;10.93;5.60;;;;;;;-2.76;51.42;99941.81;5072428;28;20032;-69
2021/01/20 08:45:23;;;;;;;9.63;5.40;;;;;;;-2.64;51.58;99939.81;5071428;28;20029;-70
2021/01/20 08:47:54;;;;;;;10.88;5.13;;;;;;;-2.71;51.18;99919.88;5072300;28;20074;-74
2021/01/20 08:50:29;;;;;;;9.13;5.10;;;;;;;-2.55;50.51;99944.84;5072369;28;20040;-56
2021/01/20 08:52:56;;;;;;;7.80;4.23;;;;;;;-2.53;50.85;99957.88;5071798;28;20452;-72
2021/01/20 08:55:48;;;;;;;10.40;5.15;;;;;;;-2.55;51.07;99941.34;5071611;28;20036;-70
2021/01/20 08:58:27;;;;;;;10.48;5.13;;;;;;;-2.51;50.93;99943.84;5071473;28;20029;-65
2021/01/20 09:01:02;;;;;;;12.18;5.53;;;;;;;-2.47;50.81;99945.50;5072042;28;20492;-73
2021/01/20 09:03:35;;;;;;;11.80;5.22;;;;;;;-2.42;50.52;99944.50;5071283;28;20424;-73
2021/01/20 09:06:03;;;;;;;9.77;4.72;;;;;;;-2.35;50.30;99951.34;5071578;28;20044;-72
2021/01/20 09:08:30;;;;;;;10.88;5.40;;;;;;;-2.28;50.99;99954.69;5072431;28;20441;-71
2021/01/20 09:10:58;;;;;;;10.98;5.60;;;;;;;-2.23;50.63;99951.00;5071188;28;20036;-72
2021/01/20 09:13:24;;;;;;;11.82;5.75;;;;;;;-2.19;50.17;99950.03;5071505;28;20102;-72
2021/01/20 09:15:52;;;;;;;10.75;5.72;;;;;;;-2.10;50.27;99948.09;5071496;28;20044;-57
2021/01/20 09:18:18;;;;;;;15.98;5.60;;;;;;;-2.06;50.42;99947.94;5072679;28;20449;-72
2021/01/20 09:20:44;;;;;;;15.65;5.47;;;;;;;-2.14;50.50;99928.09;5080689;28;20117;-65
2021/01/20 09:23:10;;;;;;;13.68;5.78;;;;;;;-1.95;50.02;99955.53;5072351;28;20043;-71
2021/01/20 09:25:36;;;;;;;9.88;5.47;;;;;;;-1.88;49.88;99950.97;5070718;28;20040;-70
2021/01/20 09:28:03;;;;;;;15.93;6.00;;;;;;;-1.87;49.82;99950.06;5071405;28;20058;-72
2021/01/20 09:30:29;;;;;;;11.63;5.85;;;;;;;-1.86;50.22;99949.16;5071359;28;20070;-74
2021/01/20 09:32:54;;;;;;;12.35;5.63;;;;;;;-1.83;50.01;99948.25;5069446;28;20032;-73
2021/01/20 09:35:20;;;;;;;7.95;4.63;;;;;;;-1.73;50.01;99949.69;5077114;28;20448;-62
2021/01/20 09:37:47;;;;;;;9.55;5.05;;;;;;;-1.68;49.28;99950.44;5066597;28;20052;-70
2021/01/20 09:40:15;;;;;;;12.00;5.80;;;;;;;-1.66;49.63;99951.25;5061794;28;20051;-65
2021/01/20 09:42:42;;;;;;;12.95;5.30;;;;;;;-1.62;49.81;99954.66;5063455;28;20577;-64
2021/01/20 09:45:10;;;;;;;12.60;4.95;;;;;;;-1.66;49.65;99945.13;5062266;28;20185;-66
2021/01/20 09:47:37;;;;;;;10.77;5.43;;;;;;;-1.56;50.16;99956.25;5064957;28;20107;-67
2021/01/20 09:50:08;;;;;;;9.68;5.03;;;;;;;-1.59;49.42;99950.19;5084246;28;20440;-65
2021/01/20 09:52:34;;;;;;;10.10;5.00;;;;;;;-1.48;49.52;99956.88;5073990;28;20028;-65
2021/01/20 09:54:59;;;;;;;9.82;5.00;;;;;;;-1.54;49.64;99962.31;5079370;28;20534;-67
2021/01/20 09:57:25;;;;;;;9.60;4.45;;;;;;;-1.45;49.21;99960.28;5083440;28;20036;-65
2021/01/20 09:59:51;;;;;;;8.32;4.25;;;;;;;-1.36;49.60;99964.41;5063596;28;20162;-68
2021/01/20 10:02:16;;;;;;;9.55;4.13;;;;;;;-1.36;49.35;99960.91;5063839;28;20051;-67
2021/01/20 10:04:43;;;;;;;10.63;4.07;;;;;;;-1.35;49.20;99968.75;5060155;28;20033;-62
2021/01/20 10:07:09;;;;;;;9.30;3.95;;;;;;;-1.51;49.92;99943.84;5080146;28;20020;-61
2021/01/20 10:09:35;;;;;;;6.65;3.75;;;;;;;-1.37;49.75;99961.81;5074101;28;20553;-67
2021/01/20 10:12:00;;;;;;;7.05;3.50;;;;;;;-1.43;50.05;99965.50;5085706;28;20032;-63
2021/01/20 10:14:26;;;;;;;7.05;3.47;;;;;;;-1.59;50.13;99939.69;5074947;28;20036;-65
2021/01/20 10:16:52;;;;;;;9.80;5.07;;;;;;;-1.47;50.13;99953.34;5079941;28;20069;-63
2021/01/20 10:19:18;;;;;;;5.22;3.22;;;;;;;-1.51;50.22;99935.97;5082267;28;20107;-60
2021/01/20 10:21:44;;;;;;;9.00;3.42;;;;;;;-1.42;49.59;99951.47;5071976;28;20416;-63
2021/01/20 10:24:10;;;;;;;6.68;3.40;;;;;;;-1.47;49.84;99933.22;5078214;28;20104;-63
2021/01/20 10:26:38;;;;;;;7.18;3.80;;;;;;;-1.95;49.81;99847.94;5073128;28;20384;-63
2021/01/20 10:29:05;;;;;;;5.65;2.85;;;;;;;-1.36;50.07;99956.53;5078289;28;20055;-63
2021/01/20 10:31:37;;;;;;;7.35;3.88;;;;;;;-1.37;49.86;99944.31;5074801;28;20056;-63
2021/01/20 10:34:03;;;;;;;7.03;3.40;;;;;;;-1.27;49.42;99952.78;5085917;28;20047;-66
2021/01/20 10:36:29;;;;;;;7.15;3.58;;;;;;;-1.41;49.81;99934.81;5074423;28;20028;-67
2021/01/20 10:38:55;;;;;;;7.82;3.85;;;;;;;-1.19;49.56;99952.56;5079645;28;20032;-60
2021/01/20 10:41:21;;;;;;;5.65;3.22;;;;;;;-1.50;49.31;99880.78;5081465;28;20078;-59
2021/01/20 10:43:48;;;;;;;8.07;4.03;;;;;;;-1.09;49.25;99959.25;5072137;28;20036;-62
2021/01/20 10:46:15;;;;;;;9.00;4.65;;;;;;;-1.22;49.38;99935.09;5084995;28;20027;-62
2021/01/20 10:48:41;;;;;;;10.82;5.07;;;;;;;-1.00;49.46;99947.59;5075791;28;20436;-63
2021/01/20 10:51:07;;;;;;;11.50;5.35;;;;;;;-0.85;49.09;99961.16;5077178;28;20055;-64
2021/01/20 10:53:32;;;;;;;11.88;5.47;;;;;;;-0.79;48.85;99951.31;5082940;28;20459;-62
2021/01/20 10:55:58;;;;;;;13.57;5.97;;;;;;;-0.86;49.26;99923.50;5072450;28;20403;-61
2021/01/20 10:58:23;;;;;;;9.73;4.88;;;;;;;-0.67;48.96;99965.00;5083272;28;20152;-64
2021/01/20 11:00:50;;;;;;;12.18;5.68;;;;;;;-0.67;49.16;99962.34;5077731;28;20039;-56
2021/01/20 11:03:16;;;;;;;8.90;5.00;;;;;;;-0.76;48.93;99951.22;5076793;28;20045;-65
2021/01/20 11:05:42;;;;;;;8.45;5.05;;;;;;;-0.75;48.89;99963.44;5084977;28;20428;-63
2021/01/20 11:08:08;;;;;;;10.05;4.60;;;;;;;-0.82;49.03;99948.78;5071010;28;20131;-63
2021/01/20 11:10:33;;;;;;;8.10;4.50;;;;;;;-0.84;49.29;99955.84;5071756;28;20503;-62
2021/01/20 11:13:06;;;;;;;10.15;5.40;;;;;;;-0.99;49.04;99944.06;5071940;28;20119;-58
2021/01/20 11:15:35;;;;;;;10.52;5.38;;;;;;;-0.98;49.40;99964.16;5073296;28;20403;-63
2021/01/20 11:18:01;;;;;;;10.18;5.75;;;;;;;-1.02;49.43;99966.03;5072061;28;20045;-63
2021/01/20 11:20:26;;;;;;;9.07;4.43;;;;;;;-1.18;49.37;99935.88;5082463;28;20142;-63
2021/01/20 11:22:52;;;;;;;8.23;4.85;;;;;;;-1.14;49.74;99940.13;5077521;28;20115;-63
2021/01/20 11:25:18;;;;;;;10.00;4.32;;;;;;;-1.16;49.21;99944.56;5075785;28;20380;-63
2021/01/20 11:27:45;;;;;;;9.75;5.05;;;;;;;-1.48;49.53;99885.97;5084044;28;20421;-62
2021/01/20 11:30:11;;;;;;;10.20;4.45;;;;;;;-1.09;49.26;99954.00;5060613;28;20126;-62
2021/01/20 11:32:37;;;;;;;11.60;5.65;;;;;;;-1.22;49.32;99931.59;5073933;28;20365;-62